createdAt,value
2023-01-03T00:01:08.780Z,100.00
2023-01-03T00:03:37.959Z,100.00
2023-01-03T00:06:17.814Z,100.00
2023-01-03T00:08:47.465Z,100.00
2023-01-03T00:11:18.947Z,100.00
2023-01-03T00:13:46.984Z,100.00
2023-01-03T00:16:20.302Z,100.00
2023-01-03T00:18:49.381Z,100.00
2023-01-03T00:21:20.052Z,100.00
2023-01-03T00:23:49.116Z,100.00
2023-01-03T00:26:18.772Z,100.00
2023-01-03T00:28:48.117Z,100.00
2023-01-03T00:31:17.375Z,100.00
2023-01-03T00:33:46.612Z,100.00
2023-01-03T00:36:15.808Z,100.00
2023-01-03T00:38:46.594Z,100.00
2023-01-03T00:41:18.433Z,100.00
2023-01-03T00:43:49.422Z,100.00
2023-01-03T00:46:20.769Z,100.00
2023-01-03T00:48:49.980Z,100.00
2023-01-03T00:51:20.781Z,100.00
2023-01-03T00:53:53.173Z,100.00
2023-01-03T00:56:23.948Z,100.00
2023-01-03T00:58:53.480Z,100.00
2023-01-03T01:01:24.203Z,100.00
2023-01-03T01:03:56.371Z,100.00
2023-01-03T01:06:28.349Z,100.00
2023-01-03T01:09:01.230Z,100.00
2023-01-03T01:11:31.025Z,100.00
2023-01-03T01:14:00.231Z,100.00
2023-01-03T01:16:31.502Z,100.00
2023-01-03T01:19:01.883Z,100.00
2023-01-03T01:21:32.884Z,100.00
2023-01-03T01:24:03.319Z,100.00
2023-01-03T01:26:32.431Z,100.00
2023-01-03T01:29:01.511Z,100.00
2023-01-03T01:31:30.975Z,100.00
2023-01-03T01:34:00.433Z,100.00
2023-01-03T01:36:32.267Z,100.00
2023-01-03T01:39:05.004Z,100.00
2023-01-03T01:41:55.000Z,100.00
2023-01-03T01:44:49.064Z,100.00
2023-01-03T01:47:26.066Z,100.00
2023-01-03T01:50:03.043Z,100.00
2023-01-03T01:52:34.365Z,100.00
2023-01-03T01:55:07.808Z,100.00
2023-01-03T01:57:39.432Z,100.00
2023-01-03T02:00:11.254Z,100.00
2023-01-03T02:02:48.355Z,100.00
2023-01-03T02:05:19.883Z,100.00
2023-01-03T02:07:50.959Z,100.00
2023-01-03T02:10:26.875Z,100.00
2023-01-03T02:13:12.881Z,100.00
2023-01-03T02:16:02.523Z,100.00
2023-01-03T02:18:44.483Z,100.00
2023-01-03T02:21:57.130Z,100.00
2023-01-03T02:24:45.665Z,100.00
2023-01-03T02:27:47.513Z,100.00
2023-01-03T02:30:34.656Z,100.00
2023-01-03T02:33:17.152Z,100.00
2023-01-03T02:35:56.804Z,100.00
2023-01-03T02:38:37.935Z,100.00
2023-01-03T02:41:17.152Z,100.00
2023-01-03T02:43:55.456Z,100.00
2023-01-03T02:46:31.931Z,100.00
2023-01-03T02:49:06.018Z,100.00
2023-01-03T02:51:39.103Z,100.00
2023-01-03T02:54:14.188Z,100.00
2023-01-03T02:56:50.211Z,100.00
2023-01-03T02:59:25.888Z,100.00
2023-01-03T03:01:56.953Z,100.00
2023-01-03T03:04:26.859Z,100.00
2023-01-03T03:07:03.430Z,100.00
2023-01-03T03:09:32.525Z,100.00
2023-01-03T03:12:20.520Z,100.00
2023-01-03T03:14:52.814Z,100.00
2023-01-03T03:17:30.589Z,100.00
2023-01-03T03:20:17.165Z,100.00
2023-01-03T03:23:05.960Z,100.00
2023-01-03T03:25:42.049Z,100.00
2023-01-03T03:28:36.290Z,100.00
2023-01-03T03:31:10.238Z,100.00
2023-01-03T03:33:45.578Z,100.00
2023-01-03T03:36:21.233Z,100.00
2023-01-03T03:38:50.750Z,100.00
2023-01-03T03:41:41.590Z,100.00
2023-01-03T03:44:37.919Z,100.00
2023-01-03T03:47:16.142Z,100.00
2023-01-03T03:49:50.997Z,100.00
2023-01-03T03:52:26.644Z,100.00
2023-01-03T03:55:00.976Z,100.00
2023-01-03T03:57:37.548Z,100.00
2023-01-03T04:00:10.590Z,100.00
2023-01-03T04:02:43.932Z,100.00
2023-01-03T04:05:17.355Z,100.00
2023-01-03T04:07:46.883Z,100.00
2023-01-03T04:10:20.539Z,100.00
2023-01-03T04:12:50.294Z,100.00
2023-01-03T04:15:19.991Z,100.00
2023-01-03T04:17:49.100Z,100.00
2023-01-03T04:20:20.382Z,100.00
2023-01-03T04:22:49.487Z,100.00
2023-01-03T04:25:18.756Z,100.00
2023-01-03T04:27:47.827Z,100.00
2023-01-03T04:30:17.095Z,100.00
2023-01-03T04:32:46.384Z,100.00
2023-01-03T04:35:15.500Z,100.00
2023-01-03T04:37:46.180Z,100.00
2023-01-03T04:40:15.278Z,100.00
2023-01-03T04:43:01.876Z,100.00
2023-01-03T04:45:31.200Z,100.00
2023-01-03T04:48:00.249Z,100.00
2023-01-03T04:50:30.530Z,100.00
2023-01-03T04:53:01.305Z,100.00
2023-01-03T04:55:30.410Z,100.00
2023-01-03T04:57:59.532Z,100.00
2023-01-03T05:00:28.754Z,100.00
2023-01-03T05:02:57.859Z,100.00
2023-01-03T05:05:27.054Z,100.00
2023-01-03T05:07:56.112Z,100.00
2023-01-03T05:10:26.691Z,100.00
2023-01-03T05:13:01.167Z,100.00
2023-01-03T05:15:30.858Z,100.00
2023-01-03T05:18:00.148Z,100.00
2023-01-03T05:20:46.713Z,100.00
2023-01-03T05:23:34.625Z,100.00
2023-01-03T05:26:09.692Z,100.00
2023-01-03T05:28:39.398Z,100.00
2023-01-03T05:31:08.536Z,100.00
2023-01-03T05:33:39.672Z,100.00
2023-01-03T05:36:10.236Z,100.00
2023-01-03T05:38:39.720Z,100.00
2023-01-03T05:41:10.832Z,100.00
2023-01-03T05:43:39.962Z,100.00
2023-01-03T05:46:09.089Z,100.00
2023-01-03T05:48:38.407Z,100.00
2023-01-03T05:51:07.619Z,100.00
2023-01-03T05:53:36.737Z,100.00
2023-01-03T05:56:06.972Z,100.00
2023-01-03T05:58:37.901Z,100.00
2023-01-03T06:01:10.341Z,100.00
2023-01-03T06:03:39.626Z,100.00
2023-01-03T06:06:10.867Z,100.00
2023-01-03T06:08:40.769Z,100.00
2023-01-03T06:11:11.548Z,100.00
2023-01-03T06:13:42.940Z,100.00
2023-01-03T06:16:32.829Z,100.00
2023-01-03T06:19:02.815Z,100.00
2023-01-03T06:21:32.076Z,100.00
2023-01-03T06:24:01.463Z,100.00
2023-01-03T06:26:30.654Z,100.00
2023-01-03T06:29:01.404Z,100.00
2023-01-03T06:31:31.039Z,100.00
2023-01-03T06:34:00.326Z,100.00
2023-01-03T06:36:29.430Z,100.00
2023-01-03T06:39:00.027Z,100.00
2023-01-03T06:41:29.127Z,100.00
2023-01-03T06:43:58.672Z,100.00
2023-01-03T06:46:47.673Z,100.00
2023-01-03T06:49:35.386Z,100.00
2023-01-03T06:52:25.125Z,100.00
2023-01-03T06:54:55.831Z,100.00
2023-01-03T06:57:26.507Z,100.00
2023-01-03T06:59:56.649Z,100.00
2023-01-03T07:02:27.456Z,100.00
2023-01-03T07:04:56.706Z,100.00
2023-01-03T07:07:25.869Z,100.00
2023-01-03T07:09:55.086Z,100.00
2023-01-03T07:12:41.505Z,100.00
2023-01-03T07:15:12.218Z,100.00
2023-01-03T07:17:42.797Z,100.00
2023-01-03T07:20:12.343Z,100.00
2023-01-03T07:22:41.661Z,100.00
2023-01-03T07:25:11.505Z,100.00
2023-01-03T07:27:40.586Z,100.00
2023-01-03T07:30:11.364Z,100.00
2023-01-03T07:32:42.155Z,100.00
2023-01-03T07:35:11.610Z,100.00
2023-01-03T07:37:40.824Z,100.00
2023-01-03T07:40:11.282Z,100.00
2023-01-03T07:42:58.833Z,100.00
2023-01-03T07:45:28.115Z,100.00
2023-01-03T07:47:58.823Z,100.00
2023-01-03T07:50:28.081Z,100.00
2023-01-03T07:52:57.314Z,100.00
2023-01-03T07:55:26.593Z,100.00
2023-01-03T07:57:55.763Z,100.00
2023-01-03T08:00:25.126Z,100.00
2023-01-03T08:02:56.032Z,100.00
2023-01-03T08:05:27.152Z,100.00
2023-01-03T08:07:57.996Z,100.00
2023-01-03T08:10:44.336Z,100.00
2023-01-03T08:13:19.587Z,100.00
2023-01-03T08:16:11.871Z,100.00
2023-01-03T08:18:42.657Z,100.00
2023-01-03T08:21:15.582Z,100.00
2023-01-03T08:23:45.134Z,100.00
2023-01-03T08:26:16.364Z,100.00
2023-01-03T08:28:48.458Z,100.00
2023-01-03T08:31:22.609Z,100.00
2023-01-03T08:33:55.648Z,100.00
2023-01-03T08:36:29.112Z,100.00
2023-01-03T08:39:02.179Z,100.00
2023-01-03T08:41:33.261Z,100.00
2023-01-03T08:44:04.401Z,100.00
2023-01-03T08:46:35.632Z,100.00
2023-01-03T08:49:05.324Z,100.00
2023-01-03T08:51:36.028Z,100.00
2023-01-03T08:54:05.734Z,100.00
2023-01-03T08:56:35.642Z,100.00
2023-01-03T08:59:05.715Z,100.00
2023-01-03T09:01:35.042Z,100.00
2023-01-03T09:04:05.664Z,100.00
2023-01-03T09:06:36.394Z,100.00
2023-01-03T09:09:06.715Z,100.00
2023-01-03T09:11:36.122Z,100.00
2023-01-03T09:14:05.397Z,99.76
2023-01-03T09:16:34.683Z,98.80
2023-01-03T09:19:04.044Z,100.00
2023-01-03T09:21:33.403Z,97.96
2023-01-03T09:24:04.307Z,97.72
2023-01-03T09:26:33.635Z,98.28
2023-01-03T09:29:02.963Z,97.71
2023-01-03T09:31:34.902Z,97.91
2023-01-03T09:34:05.636Z,96.71
2023-01-03T09:36:38.652Z,96.45
2023-01-03T09:39:09.339Z,96.53
2023-01-03T09:41:40.843Z,96.29
2023-01-03T09:44:11.106Z,95.89
2023-01-03T09:46:40.393Z,95.48
2023-01-03T09:49:09.573Z,94.76
2023-01-03T09:52:05.177Z,93.55
2023-01-03T09:54:57.287Z,93.52
2023-01-03T09:57:46.351Z,94.10
2023-01-03T10:00:38.489Z,94.07
2023-01-03T10:03:51.620Z,93.71
2023-01-03T10:06:33.637Z,94.26
2023-01-03T10:09:21.708Z,95.42
2023-01-03T10:12:04.887Z,95.90
2023-01-03T10:14:47.827Z,96.31
2023-01-03T10:17:30.147Z,96.75
2023-01-03T10:20:14.875Z,98.60
2023-01-03T10:22:44.305Z,99.30
2023-01-03T10:25:15.051Z,100.00
2023-01-03T10:27:49.812Z,100.00
2023-01-03T10:30:21.586Z,100.00
2023-01-03T10:33:22.331Z,100.00
2023-01-03T10:35:52.418Z,100.00
2023-01-03T10:38:23.229Z,100.00
2023-01-03T10:40:54.735Z,100.00
2023-01-03T10:43:31.722Z,100.00
2023-01-03T10:46:03.187Z,100.00
2023-01-03T10:49:08.357Z,100.00
2023-01-03T10:51:42.268Z,100.00
2023-01-03T10:54:22.403Z,100.00
2023-01-03T10:56:51.806Z,100.00
2023-01-03T10:59:26.048Z,100.00
2023-01-03T11:02:00.660Z,100.00
2023-01-03T11:04:31.174Z,100.00
2023-01-03T11:07:16.255Z,100.00
2023-01-03T11:09:51.655Z,100.00
2023-01-03T11:12:29.245Z,100.00
2023-01-03T11:15:01.470Z,100.00
2023-01-03T11:17:33.060Z,100.00
2023-01-03T11:20:02.524Z,100.00
2023-01-03T11:22:42.046Z,100.00
2023-01-03T11:25:30.590Z,100.00
2023-01-03T11:28:20.139Z,100.00
2023-01-03T11:31:00.472Z,100.00
2023-01-03T11:33:55.216Z,100.00
2023-01-03T11:36:36.366Z,99.60
2023-01-03T11:39:26.291Z,99.75
2023-01-03T11:42:23.760Z,98.85
2023-01-03T11:45:20.122Z,100.00
2023-01-03T11:47:58.585Z,99.22
2023-01-03T11:50:39.723Z,99.83
2023-01-03T11:53:25.094Z,98.90
2023-01-03T11:56:08.549Z,97.56
2023-01-03T11:59:04.518Z,98.57
2023-01-03T12:01:49.361Z,98.29
2023-01-03T12:04:30.731Z,98.21
2023-01-03T12:10:10.913Z,98.56
2023-01-03T12:13:05.432Z,98.76
2023-01-03T12:15:44.932Z,98.64
2023-01-03T12:18:21.861Z,98.85
2023-01-03T12:20:58.674Z,99.16
2023-01-03T12:23:35.712Z,99.43
2023-01-03T12:26:09.008Z,99.72
2023-01-03T12:28:42.311Z,99.78
2023-01-03T12:31:27.898Z,99.06
2023-01-03T12:34:12.106Z,100.00
2023-01-03T12:36:48.690Z,100.00
2023-01-03T12:39:36.500Z,100.00
2023-01-03T12:42:14.089Z,98.52
2023-01-03T12:44:45.965Z,100.00
2023-01-03T12:47:27.103Z,100.00
2023-01-03T12:50:03.776Z,100.00
2023-01-03T12:52:37.684Z,100.00
2023-01-03T12:55:20.075Z,100.00
2023-01-03T12:58:07.453Z,100.00
2023-01-03T13:01:05.636Z,100.00
2023-01-03T13:03:40.494Z,100.00
2023-01-03T13:06:17.916Z,100.00
2023-01-03T13:08:52.998Z,100.00
2023-01-03T13:11:27.339Z,100.00
2023-01-03T13:14:00.275Z,99.34
2023-01-03T13:16:45.184Z,99.55
2023-01-03T13:19:56.906Z,99.37
2023-01-03T13:22:47.171Z,100.00
2023-01-03T13:25:40.203Z,99.39
2023-01-03T13:28:31.425Z,99.72
2023-01-03T13:31:47.792Z,99.93
2023-01-03T13:34:35.566Z,100.00
2023-01-03T13:37:18.335Z,99.26
2023-01-03T13:40:18.746Z,98.46
2023-01-03T13:42:49.592Z,98.46
2023-01-03T13:45:58.962Z,98.79
2023-01-03T13:48:41.202Z,99.74
2023-01-03T13:51:39.573Z,100.00
2023-01-03T13:54:28.313Z,100.00
2023-01-03T13:57:07.249Z,100.00
2023-01-03T14:00:03.790Z,100.00
2023-01-03T14:03:20.700Z,100.00
2023-01-03T14:06:22.153Z,100.00
2023-01-03T14:09:32.165Z,100.00
2023-01-03T14:12:42.772Z,100.00
2023-01-03T14:15:26.451Z,100.00
2023-01-03T14:17:59.693Z,100.00
2023-01-03T14:20:32.818Z,100.00
2023-01-03T14:23:17.057Z,100.00
2023-01-03T14:25:53.164Z,100.00
2023-01-03T14:28:25.371Z,100.00
2023-01-03T14:31:03.746Z,100.00
2023-01-03T14:33:38.530Z,100.00
2023-01-03T14:36:09.805Z,100.00
2023-01-03T14:38:39.013Z,100.00
2023-01-03T14:41:21.589Z,100.00
2023-01-03T14:43:50.921Z,100.00
2023-01-03T14:46:21.520Z,100.00
2023-01-03T14:48:50.758Z,100.00
2023-01-03T14:51:20.979Z,100.00
2023-01-03T14:53:51.729Z,100.00
2023-01-03T14:56:31.135Z,100.00
2023-01-03T14:59:02.468Z,100.00
2023-01-03T15:01:33.299Z,100.00
2023-01-03T15:04:04.356Z,100.00
2023-01-03T15:06:34.561Z,100.00
2023-01-03T15:09:20.263Z,100.00
2023-01-03T15:11:59.832Z,100.00
2023-01-03T15:14:30.982Z,100.00
2023-01-03T15:17:07.369Z,100.00
2023-01-03T15:19:40.807Z,100.00
2023-01-03T15:22:16.136Z,100.00
2023-01-03T15:24:47.579Z,100.00
2023-01-03T15:27:50.752Z,100.00
2023-01-03T15:30:26.951Z,100.00
2023-01-03T15:33:05.231Z,100.00
2023-01-03T15:35:39.609Z,100.00
2023-01-03T15:38:18.779Z,100.00
2023-01-03T15:40:50.951Z,100.00
2023-01-03T15:43:23.952Z,100.00
2023-01-03T15:46:03.719Z,100.00
2023-01-03T15:48:36.669Z,100.00
2023-01-03T15:51:07.224Z,100.00
2023-01-03T15:53:44.387Z,100.00
2023-01-03T15:56:20.306Z,100.00
2023-01-03T15:58:52.417Z,100.00
2023-01-03T16:01:24.301Z,100.00
2023-01-03T16:03:56.190Z,100.00
2023-01-03T16:06:25.730Z,100.00
2023-01-03T16:08:55.322Z,100.00
2023-01-03T16:11:33.738Z,100.00
2023-01-03T16:14:06.279Z,100.00
2023-01-03T16:16:39.904Z,100.00
2023-01-03T16:19:21.145Z,100.00
2023-01-03T16:22:09.459Z,100.00
2023-01-03T16:24:42.752Z,100.00
2023-01-03T16:27:17.942Z,100.00
2023-01-03T16:29:47.881Z,100.00
2023-01-03T16:32:23.706Z,100.00
2023-01-03T16:35:03.500Z,100.00
2023-01-03T16:37:35.171Z,100.00
2023-01-03T16:40:06.456Z,100.00
2023-01-03T16:42:36.425Z,100.00
2023-01-03T16:45:06.479Z,100.00
2023-01-03T16:47:39.457Z,100.00
2023-01-03T16:50:18.754Z,100.00
2023-01-03T16:52:52.589Z,100.00
2023-01-03T16:55:26.828Z,100.00
2023-01-03T16:57:56.980Z,100.00
2023-01-03T17:00:28.360Z,100.00
2023-01-03T17:03:00.345Z,100.00
2023-01-03T17:05:35.680Z,100.00
2023-01-03T17:08:08.100Z,100.00
2023-01-03T17:10:40.627Z,100.00
2023-01-03T17:13:26.322Z,100.00
2023-01-03T17:15:57.005Z,100.00
2023-01-03T17:18:31.025Z,100.00
2023-01-03T17:21:12.459Z,100.00
2023-01-03T17:23:44.605Z,100.00
2023-01-03T17:26:17.150Z,100.00
2023-01-03T17:28:47.975Z,100.00
2023-01-03T17:31:20.126Z,100.00
2023-01-03T17:33:50.148Z,100.00
2023-01-03T17:36:25.680Z,100.00
2023-01-03T17:39:00.461Z,100.00
2023-01-03T17:41:30.887Z,100.00
2023-01-03T17:44:03.453Z,100.00
2023-01-03T17:46:53.383Z,100.00
2023-01-03T17:49:29.941Z,100.00
2023-01-03T17:52:03.477Z,100.00
2023-01-03T17:54:38.147Z,100.00
2023-01-03T17:57:08.593Z,100.00
2023-01-03T17:59:38.316Z,100.00
2023-01-03T18:02:19.268Z,100.00
2023-01-03T18:05:15.113Z,100.00
2023-01-03T18:07:41.413Z,100.00
2023-01-03T18:10:16.779Z,100.00
2023-01-03T18:12:50.024Z,100.00
2023-01-03T18:15:22.252Z,100.00
2023-01-03T18:17:55.433Z,100.00
2023-01-03T18:20:28.415Z,100.00
2023-01-03T18:23:00.570Z,100.00
2023-01-03T18:25:30.475Z,100.00
2023-01-03T18:28:03.767Z,100.00
2023-01-03T18:30:33.278Z,100.00
2023-01-03T18:33:02.701Z,100.00
2023-01-03T18:35:38.829Z,100.00
2023-01-03T18:38:20.517Z,100.00
2023-01-03T18:40:51.611Z,100.00
2023-01-03T18:43:24.033Z,100.00
2023-01-03T18:45:53.800Z,100.00
2023-01-03T18:48:30.533Z,100.00
2023-01-03T18:51:05.896Z,100.00
2023-01-03T18:53:44.521Z,100.00
2023-01-03T18:56:36.488Z,100.00
2023-01-03T18:59:15.879Z,100.00
2023-01-03T19:01:45.426Z,100.00
2023-01-03T19:04:14.922Z,100.00
2023-01-03T19:06:49.762Z,100.00
2023-01-03T19:09:26.852Z,100.00
2023-01-03T19:11:59.431Z,100.00
2023-01-03T19:14:32.476Z,100.00
2023-01-03T19:17:11.483Z,100.00
2023-01-03T19:19:42.843Z,100.00
2023-01-03T19:22:24.397Z,100.00
2023-01-03T19:25:00.446Z,100.00
2023-01-03T19:27:41.874Z,100.00
2023-01-03T19:30:23.093Z,100.00
2023-01-03T19:32:58.498Z,100.00
2023-01-03T19:35:34.758Z,100.00
2023-01-03T19:38:09.723Z,100.00
2023-01-03T19:40:51.148Z,100.00
2023-01-03T19:43:27.635Z,100.00
2023-01-03T19:45:59.035Z,100.00
2023-01-03T19:48:37.700Z,100.00
2023-01-03T19:51:11.807Z,100.00
2023-01-03T19:53:44.158Z,100.00
2023-01-03T19:56:26.252Z,100.00
2023-01-03T19:59:02.739Z,100.00
2023-01-03T20:02:14.280Z,100.00
2023-01-03T20:04:32.133Z,100.00
2023-01-03T20:07:20.995Z,100.00
2023-01-03T20:09:51.411Z,100.00
2023-01-03T20:12:28.569Z,100.00
2023-01-03T20:15:04.586Z,100.00
2023-01-03T20:17:39.150Z,100.00
2023-01-03T20:20:12.716Z,100.00
2023-01-03T20:25:39.962Z,100.00
2023-01-03T20:28:24.394Z,100.00
2023-01-03T20:30:56.894Z,100.00
2023-01-03T20:33:28.628Z,100.00
2023-01-03T20:36:12.676Z,100.00
2023-01-03T20:38:49.269Z,100.00
2023-01-03T20:41:22.536Z,100.00
2023-01-03T20:43:56.332Z,100.00
2023-01-03T20:46:30.139Z,100.00
2023-01-03T20:49:02.442Z,100.00
2023-01-03T20:51:32.599Z,100.00
2023-01-03T20:54:07.245Z,100.00
2023-01-03T20:56:41.712Z,100.00
2023-01-03T20:59:16.749Z,100.00
2023-01-03T21:01:48.221Z,100.00
2023-01-03T21:04:19.039Z,100.00
2023-01-03T21:06:49.014Z,100.00
2023-01-03T21:09:18.451Z,100.00
2023-01-03T21:11:49.132Z,100.00
2023-01-03T21:14:19.896Z,100.00
2023-01-03T21:16:50.105Z,100.00
2023-01-03T21:19:21.462Z,100.00
2023-01-03T21:21:53.335Z,100.00
2023-01-03T21:24:25.240Z,100.00
2023-01-03T21:26:54.658Z,100.00
2023-01-03T21:29:25.336Z,100.00
2023-01-03T21:31:59.384Z,100.00
2023-01-03T21:34:28.678Z,100.00
2023-01-03T21:36:58.260Z,100.00
2023-01-03T21:39:30.321Z,100.00
2023-01-03T21:42:16.575Z,100.00
2023-01-03T21:44:47.207Z,100.00
2023-01-03T21:47:16.355Z,100.00
2023-01-03T21:49:45.509Z,100.00
2023-01-03T21:52:14.695Z,100.00
2023-01-03T21:54:43.789Z,100.00
2023-01-03T21:57:17.695Z,100.00
2023-01-03T21:59:51.853Z,100.00
2023-01-03T22:02:38.359Z,100.00
2023-01-03T22:05:08.069Z,100.00
2023-01-03T22:07:37.348Z,100.00
2023-01-03T22:10:20.196Z,100.00
2023-01-03T22:12:51.502Z,100.00
2023-01-03T22:15:22.693Z,100.00
2023-01-03T22:17:51.969Z,100.00
2023-01-03T22:20:23.384Z,100.00
2023-01-03T22:22:53.574Z,100.00
2023-01-03T22:25:25.031Z,100.00
2023-01-03T22:27:57.529Z,100.00
2023-01-03T22:30:28.756Z,100.00
2023-01-03T22:32:58.797Z,100.00
2023-01-03T22:35:28.125Z,100.00
2023-01-03T22:37:57.514Z,100.00
2023-01-03T22:40:26.669Z,100.00
2023-01-03T22:42:56.353Z,100.00
2023-01-03T22:45:25.472Z,100.00
2023-01-03T22:47:56.296Z,100.00
2023-01-03T22:50:25.768Z,100.00
2023-01-03T22:52:55.155Z,100.00
2023-01-03T22:55:28.332Z,100.00
2023-01-03T22:58:01.779Z,100.00
2023-01-03T23:00:31.019Z,100.00
2023-01-03T23:03:03.443Z,100.00
2023-01-03T23:05:32.659Z,100.00
2023-01-03T23:08:01.948Z,100.00
2023-01-03T23:10:31.286Z,100.00
2023-01-03T23:12:59.458Z,100.00
2023-01-03T23:15:33.784Z,100.00
2023-01-03T23:18:04.232Z,100.00
2023-01-03T23:20:35.575Z,100.00
2023-01-03T23:23:05.934Z,100.00
2023-01-03T23:25:37.114Z,100.00
2023-01-03T23:28:06.512Z,100.00
2023-01-03T23:30:46.117Z,100.00
2023-01-03T23:33:16.674Z,100.00
2023-01-03T23:35:45.840Z,100.00
2023-01-03T23:38:14.902Z,100.00
2023-01-03T23:40:44.700Z,100.00
2023-01-03T23:43:13.969Z,100.00
2023-01-03T23:45:43.102Z,100.00
2023-01-03T23:48:12.171Z,100.00
2023-01-03T23:50:42.844Z,100.00
2023-01-03T23:53:11.829Z,100.00
2023-01-03T23:55:40.889Z,100.00
2023-01-03T23:58:10.228Z,100.00
